createdAt,value
2022-08-21T00:03:59.637Z,-62.7
2022-08-21T00:09:08.140Z,-61.6
2022-08-21T00:14:16.474Z,-62.0
2022-08-21T00:19:30.487Z,-62.6
2022-08-21T00:24:37.287Z,-62.4
2022-08-21T00:29:45.313Z,-62.6
2022-08-21T00:34:53.030Z,-61.7
2022-08-21T00:39:59.615Z,-62.0
2022-08-21T00:45:08.047Z,-62.8
2022-08-21T00:50:14.791Z,-62.2
2022-08-21T00:55:22.070Z,-62.1
2022-08-21T01:00:28.486Z,-62.3
2022-08-21T01:05:37.167Z,-62.0
2022-08-21T01:10:43.682Z,-62.0
2022-08-21T01:15:52.069Z,-62.4
2022-08-21T01:20:59.200Z,-62.3
2022-08-21T01:26:06.479Z,-63.3
2022-08-21T01:31:14.362Z,-62.5
2022-08-21T01:36:22.490Z,-61.7
2022-08-21T01:41:33.398Z,-62.1
2022-08-21T01:46:41.544Z,-62.1
2022-08-21T01:51:49.457Z,-62.5
2022-08-21T01:56:57.522Z,-63.8
2022-08-21T02:02:05.230Z,-63.4
2022-08-21T02:07:11.607Z,-63.8
2022-08-21T02:12:19.779Z,-63.7
2022-08-21T02:17:27.454Z,-64.0
2022-08-21T02:22:34.539Z,-63.7
2022-08-21T02:27:41.050Z,-63.2
2022-08-21T02:32:48.858Z,-64.0
2022-08-21T02:37:56.486Z,-63.9
2022-08-21T02:43:05.055Z,-64.3
2022-08-21T02:48:13.117Z,-63.8
2022-08-21T02:53:22.093Z,-63.4
2022-08-21T02:58:29.842Z,-63.9
2022-08-21T03:03:37.745Z,-63.3
2022-08-21T03:08:45.350Z,-63.5
2022-08-21T03:13:53.027Z,-62.9
2022-08-21T03:19:00.056Z,-63.5
2022-08-21T03:24:07.928Z,-63.4
2022-08-21T03:29:15.736Z,-63.5
2022-08-21T03:34:22.951Z,-63.3
2022-08-21T03:39:30.123Z,-63.9
2022-08-21T03:44:36.697Z,-64.5
2022-08-21T03:49:44.540Z,-64.3
2022-08-21T03:54:51.927Z,-64.0
2022-08-21T03:59:58.934Z,-63.7
2022-08-21T04:05:06.869Z,-63.7
2022-08-21T04:10:14.606Z,-64.1
2022-08-21T04:15:22.573Z,-64.0
2022-08-21T04:20:29.079Z,-64.4
2022-08-21T04:25:38.088Z,-64.0
2022-08-21T04:30:44.868Z,-63.2
2022-08-21T04:35:52.204Z,-63.4
2022-08-21T04:41:00.504Z,-63.3
2022-08-21T04:46:09.276Z,-63.9
2022-08-21T04:51:16.054Z,-63.7
2022-08-21T04:56:24.481Z,-62.8
2022-08-21T05:02:09.537Z,-63.1
2022-08-21T05:07:17.319Z,-63.6
2022-08-21T05:12:24.591Z,-63.5
2022-08-21T05:17:32.381Z,-63.5
2022-08-21T05:22:40.688Z,-63.7
2022-08-21T05:27:48.058Z,-62.8
2022-08-21T05:32:56.042Z,-63.7
2022-08-21T05:38:03.128Z,-64.1
2022-08-21T05:43:18.016Z,-63.8
2022-08-21T05:48:26.492Z,-63.4
2022-08-21T05:53:33.018Z,-64.6
2022-08-21T05:58:40.872Z,-63.7
2022-08-21T06:03:49.116Z,-62.9
2022-08-21T06:08:56.574Z,-63.8
2022-08-21T06:14:05.017Z,-63.3
2022-08-21T06:19:13.305Z,-63.8
2022-08-21T06:24:20.695Z,-62.8
2022-08-21T06:29:28.964Z,-63.1
2022-08-21T06:34:35.095Z,-64.0
2022-08-21T06:39:42.937Z,-63.4
2022-08-21T06:44:50.569Z,-62.6
2022-08-21T06:49:57.918Z,-64.6
2022-08-21T06:56:36.951Z,-62.2
2022-08-21T07:01:44.344Z,-63.3
2022-08-21T07:06:53.492Z,-62.9
2022-08-21T07:12:02.588Z,-63.3
2022-08-21T07:17:12.831Z,-63.3
2022-08-21T07:22:28.234Z,-63.3
2022-08-21T07:27:40.827Z,-63.5
2022-08-21T07:32:50.421Z,-63.1
2022-08-21T07:37:59.771Z,-63.1
2022-08-21T07:49:15.802Z,-63.2
2022-08-21T07:55:01.437Z,-63.5
2022-08-21T08:00:09.436Z,-63.5
2022-08-21T08:05:16.384Z,-63.6
2022-08-21T08:10:24.486Z,-63.1
2022-08-21T08:15:31.419Z,-63.9
2022-08-21T08:20:40.412Z,-64.0
2022-08-21T08:25:47.760Z,-63.9
2022-08-21T08:30:56.735Z,-64.6
2022-08-21T08:36:05.631Z,-63.4
2022-08-21T08:41:13.156Z,-63.7
2022-08-21T08:46:20.389Z,-63.5
2022-08-21T08:51:28.154Z,-63.7
2022-08-21T08:56:36.062Z,-63.5
2022-08-21T09:01:43.705Z,-63.8
2022-08-21T09:06:51.927Z,-64.1
2022-08-21T09:12:00.729Z,-63.1
2022-08-21T09:17:09.331Z,-63.0
2022-08-21T09:22:17.183Z,-63.8
2022-08-21T09:27:24.380Z,-63.3
2022-08-21T09:32:32.812Z,-64.3
2022-08-21T09:37:39.415Z,-64.2
2022-08-21T09:43:01.337Z,-63.6
2022-08-21T09:48:10.445Z,-64.2
2022-08-21T09:53:18.074Z,-63.3
2022-08-21T09:58:26.467Z,-64.6
2022-08-21T10:03:33.911Z,-63.9
2022-08-21T10:08:42.143Z,-63.8
2022-08-21T10:13:49.786Z,-64.6
2022-08-21T10:18:57.765Z,-64.5
2022-08-21T10:24:05.367Z,-64.1
2022-08-21T10:29:14.138Z,-64.3
2022-08-21T10:34:22.808Z,-65.5
2022-08-21T10:39:30.118Z,-64.2
2022-08-21T10:44:37.850Z,-63.9
2022-08-21T10:49:46.025Z,-64.8
2022-08-21T10:54:53.481Z,-64.4
2022-08-21T11:00:01.449Z,-64.5
2022-08-21T11:05:08.054Z,-64.9
2022-08-21T11:10:16.007Z,-64.8
2022-08-21T11:15:23.899Z,-64.0
2022-08-21T11:20:31.620Z,-64.7
2022-08-21T11:25:39.177Z,-63.4
2022-08-21T11:30:46.613Z,-64.7
2022-08-21T11:35:53.178Z,-65.4
2022-08-21T11:41:00.556Z,-64.9
2022-08-21T11:46:07.866Z,-64.0
2022-08-21T11:51:14.781Z,-64.3
2022-08-21T11:56:21.815Z,-64.0
2022-08-21T12:01:28.544Z,-64.5
2022-08-21T12:06:36.097Z,-64.3
2022-08-21T12:11:42.936Z,-63.7
2022-08-21T12:16:51.086Z,-65.2
2022-08-21T12:21:58.459Z,-63.9
2022-08-21T12:27:07.529Z,-64.5
2022-08-21T12:32:15.450Z,-65.9
2022-08-21T12:37:23.645Z,-65.2
2022-08-21T12:42:30.649Z,-65.1
2022-08-21T12:47:38.489Z,-64.0
2022-08-21T12:52:47.293Z,-64.3
2022-08-21T12:57:55.664Z,-64.5
2022-08-21T13:03:02.991Z,-64.8
2022-08-21T13:08:10.458Z,-65.1
2022-08-21T13:13:18.014Z,-64.4
2022-08-21T13:18:24.896Z,-65.1
2022-08-21T13:23:32.769Z,-64.3
2022-08-21T13:28:41.620Z,-64.3
2022-08-21T13:33:49.072Z,-64.5
2022-08-21T13:38:57.435Z,-64.3
2022-08-21T13:44:04.790Z,-64.4
2022-08-21T13:49:12.478Z,-64.1
2022-08-21T13:54:19.742Z,-64.8
2022-08-21T13:59:26.302Z,-64.4
2022-08-21T14:04:34.312Z,-64.4
2022-08-21T14:09:42.839Z,-64.2
2022-08-21T14:14:51.544Z,-64.7
2022-08-21T14:19:58.943Z,-64.3
2022-08-21T14:25:13.818Z,-64.2
2022-08-21T14:30:21.609Z,-64.1
2022-08-21T14:35:29.528Z,-64.3
2022-08-21T14:40:37.353Z,-64.1
2022-08-21T14:45:43.925Z,-64.0
2022-08-21T14:50:54.834Z,-63.7
2022-08-21T14:56:02.121Z,-64.1
2022-08-21T15:01:09.322Z,-64.2
2022-08-21T15:06:15.889Z,-64.3
2022-08-21T15:11:23.981Z,-63.9
2022-08-21T15:16:32.106Z,-64.3
2022-08-21T15:21:39.454Z,-64.2
2022-08-21T15:26:48.340Z,-63.9
2022-08-21T15:31:56.162Z,-64.2
2022-08-21T15:37:04.748Z,-64.0
2022-08-21T15:42:12.577Z,-63.9
2022-08-21T15:47:19.932Z,-63.8
2022-08-21T15:52:27.130Z,-64.1
2022-08-21T15:57:34.892Z,-63.8
2022-08-21T16:02:42.168Z,-64.0
2022-08-21T16:07:50.183Z,-63.9
2022-08-21T16:13:11.929Z,-64.0
2022-08-21T16:18:20.751Z,-63.7
2022-08-21T16:23:28.313Z,-63.7
2022-08-21T16:28:35.417Z,-63.9
2022-08-21T16:33:43.212Z,-63.6
2022-08-21T16:38:52.761Z,-63.8
2022-08-21T16:43:59.891Z,-64.3
2022-08-21T16:49:07.446Z,-64.0
2022-08-21T16:54:15.398Z,-64.1
2022-08-21T16:59:23.600Z,-63.7
2022-08-21T17:04:30.947Z,-63.7
2022-08-21T17:09:38.614Z,-63.6
2022-08-21T17:14:45.655Z,-63.8
2022-08-21T17:19:53.176Z,-64.4
2022-08-21T17:24:59.735Z,-64.3
2022-08-21T17:30:07.636Z,-64.2
2022-08-21T17:35:15.397Z,-64.5
2022-08-21T17:40:22.615Z,-62.7
2022-08-21T17:45:29.927Z,-62.8
2022-08-21T17:50:38.014Z,-63.3
2022-08-21T17:55:45.562Z,-63.5
2022-08-21T18:00:53.842Z,-62.9
2022-08-21T18:06:01.137Z,-63.1
2022-08-21T18:11:10.069Z,-62.5
2022-08-21T18:16:17.684Z,-62.8
2022-08-21T18:21:25.312Z,-62.5
2022-08-21T18:26:33.675Z,-62.6
2022-08-21T18:31:40.708Z,-63.2
2022-08-21T18:36:48.242Z,-62.6
2022-08-21T18:41:55.440Z,-63.1
2022-08-21T18:47:03.684Z,-62.7
2022-08-21T18:52:10.820Z,-62.8
2022-08-21T18:57:19.451Z,-62.7
2022-08-21T19:02:28.346Z,-62.7
2022-08-21T19:07:35.898Z,-63.1
2022-08-21T19:12:42.565Z,-63.0
2022-08-21T19:17:50.111Z,-62.8
2022-08-21T19:22:56.855Z,-62.8
2022-08-21T19:28:04.358Z,-62.8
2022-08-21T19:33:13.047Z,-63.0
2022-08-21T19:38:20.665Z,-62.8
2022-08-21T19:43:28.275Z,-62.9
2022-08-21T19:48:36.052Z,-62.7
2022-08-21T19:53:43.385Z,-62.7
2022-08-21T19:58:51.175Z,-63.1
2022-08-21T20:03:58.602Z,-62.7
2022-08-21T20:09:05.514Z,-63.5
2022-08-21T20:14:13.422Z,-63.3
2022-08-21T20:19:28.727Z,-63.2
2022-08-21T20:24:36.060Z,-62.7
2022-08-21T20:29:43.296Z,-63.1
2022-08-21T20:34:50.456Z,-62.8
2022-08-21T20:39:57.047Z,-63.2
2022-08-21T20:45:05.246Z,-63.2
2022-08-21T20:50:12.051Z,-63.1
2022-08-21T20:55:19.895Z,-63.2
2022-08-21T21:00:26.456Z,-63.0
2022-08-21T21:05:33.150Z,-63.0
2022-08-21T21:10:40.303Z,-62.9
2022-08-21T21:15:47.483Z,-62.9
2022-08-21T21:20:54.897Z,-63.3
2022-08-21T21:26:01.924Z,-63.1
2022-08-21T21:31:09.100Z,-63.0
2022-08-21T21:36:16.643Z,-62.4
2022-08-21T21:41:24.782Z,-63.3
2022-08-21T21:46:31.893Z,-63.2
2022-08-21T21:51:39.095Z,-63.1
2022-08-21T21:56:47.079Z,-63.1
2022-08-21T22:01:55.349Z,-63.1
2022-08-21T22:07:01.335Z,-63.1
2022-08-21T22:12:50.148Z,-63.2
2022-08-21T22:17:58.218Z,-63.1
2022-08-21T22:23:06.974Z,-63.1
2022-08-21T22:28:15.037Z,-63.2
2022-08-21T22:33:22.518Z,-63.4
2022-08-21T22:38:31.139Z,-63.4
2022-08-21T22:43:39.216Z,-63.2
2022-08-21T22:48:46.318Z,-63.3
2022-08-21T22:53:53.495Z,-63.6
2022-08-21T22:59:01.301Z,-63.1
2022-08-21T23:04:09.171Z,-63.5
2022-08-21T23:09:17.546Z,-63.4
2022-08-21T23:14:26.013Z,-63.0
2022-08-21T23:19:33.973Z,-63.0
2022-08-21T23:24:42.761Z,-63.3
2022-08-21T23:29:49.016Z,-63.1
2022-08-21T23:34:57.286Z,-63.5
2022-08-21T23:40:04.725Z,-63.4
2022-08-21T23:45:12.483Z,-63.3
2022-08-21T23:50:53.245Z,-63.1
2022-08-21T23:50:53.595Z,-63.1
2022-08-21T23:51:51.330Z,-63.5
2022-08-21T23:56:57.175Z,-63.7
